createdAt,value
2017-05-24T00:01:40.492Z,11.52
2017-05-24T00:04:07.901Z,12.64
2017-05-24T00:06:35.172Z,12.02
2017-05-24T00:09:02.435Z,12.38
2017-05-24T00:11:29.707Z,13.88
2017-05-24T00:13:56.997Z,12.84
2017-05-24T00:16:24.279Z,12.46
2017-05-24T00:18:51.576Z,12.12
2017-05-24T00:21:18.912Z,12.42
2017-05-24T00:23:46.166Z,10.68
2017-05-24T00:26:13.445Z,10.22
2017-05-24T00:28:40.884Z,11.58
2017-05-24T00:31:08.152Z,11.48
2017-05-24T00:33:35.436Z,11.52
2017-05-24T00:36:02.707Z,10.72
2017-05-24T00:38:29.953Z,11.34
2017-05-24T00:40:57.267Z,10.90
2017-05-24T00:43:24.623Z,12.28
2017-05-24T00:45:51.988Z,12.82
2017-05-24T00:48:19.245Z,11.76
2017-05-24T00:50:46.532Z,13.32
2017-05-24T00:53:13.800Z,12.36
2017-05-24T00:55:41.056Z,12.42
2017-05-24T00:58:08.357Z,10.92
2017-05-24T01:00:35.671Z,11.60
2017-05-24T01:03:03.046Z,10.22
2017-05-24T01:05:30.318Z,11.08
2017-05-24T01:07:57.642Z,13.00
2017-05-24T01:10:24.924Z,10.98
2017-05-24T01:12:52.224Z,11.04
2017-05-24T01:15:19.551Z,10.82
2017-05-24T01:17:46.908Z,11.74
2017-05-24T01:20:14.184Z,12.04
2017-05-24T01:22:41.572Z,12.08
2017-05-24T01:25:08.866Z,11.22
2017-05-24T01:27:36.123Z,11.68
2017-05-24T01:30:03.435Z,12.60
2017-05-24T01:32:30.699Z,11.08
2017-05-24T01:34:57.962Z,10.74
2017-05-24T01:37:25.276Z,10.64
2017-05-24T01:39:52.555Z,10.48
2017-05-24T01:42:19.808Z,10.64
2017-05-24T01:44:47.108Z,9.92
2017-05-24T01:47:14.396Z,10.58
2017-05-24T01:49:41.640Z,8.90
2017-05-24T01:52:08.940Z,9.44
2017-05-24T01:54:36.172Z,9.24
2017-05-24T01:57:03.448Z,9.88
2017-05-24T01:59:30.935Z,9.74
2017-05-24T02:01:58.257Z,9.44
2017-05-24T02:04:25.536Z,8.46
2017-05-24T02:06:52.841Z,7.80
2017-05-24T02:09:20.137Z,8.72
2017-05-24T02:11:47.420Z,7.80
2017-05-24T02:14:14.790Z,7.52
2017-05-24T02:16:42.032Z,8.40
2017-05-24T02:19:09.323Z,6.96
2017-05-24T02:21:36.587Z,6.68
2017-05-24T02:24:03.849Z,6.86
2017-05-24T02:26:31.141Z,5.96
2017-05-24T02:28:58.420Z,5.96
2017-05-24T02:31:25.707Z,6.52
2017-05-24T02:33:53.000Z,6.78
2017-05-24T02:36:20.280Z,5.56
2017-05-24T02:38:47.579Z,5.18
2017-05-24T02:41:14.840Z,5.38
2017-05-24T02:43:42.111Z,4.50
2017-05-24T02:46:09.404Z,4.28
2017-05-24T02:48:36.704Z,4.36
2017-05-24T02:51:03.979Z,4.92
2017-05-24T02:53:31.264Z,4.84
2017-05-24T02:55:58.576Z,4.38
2017-05-24T02:58:25.863Z,4.38
2017-05-24T03:00:53.123Z,4.14
2017-05-24T03:03:20.416Z,4.04
2017-05-24T03:05:47.848Z,3.78
2017-05-24T03:08:15.123Z,4.30
2017-05-24T03:10:43.390Z,3.58
2017-05-24T03:13:10.704Z,3.80
2017-05-24T03:15:37.969Z,3.58
2017-05-24T03:18:05.261Z,3.52
2017-05-24T03:20:32.568Z,3.44
2017-05-24T03:22:59.823Z,3.60
2017-05-24T03:25:27.132Z,3.10
2017-05-24T03:27:54.512Z,3.00
2017-05-24T03:30:21.754Z,3.38
2017-05-24T03:32:49.006Z,2.70
2017-05-24T03:35:16.254Z,2.80
2017-05-24T03:37:43.536Z,2.72
2017-05-24T03:40:10.792Z,2.80
2017-05-24T03:42:38.091Z,2.94
2017-05-24T03:45:05.388Z,3.16
2017-05-24T03:47:32.687Z,3.02
2017-05-24T03:50:00.039Z,2.50
2017-05-24T03:52:27.312Z,2.48
2017-05-24T03:54:54.583Z,2.82
2017-05-24T03:57:21.836Z,2.96
2017-05-24T03:59:49.114Z,2.44
2017-05-24T04:02:16.391Z,2.82
2017-05-24T04:04:43.668Z,2.68
2017-05-24T04:07:10.961Z,2.38
2017-05-24T04:09:38.296Z,2.16
2017-05-24T04:12:05.536Z,2.82
2017-05-24T04:14:33.016Z,1.96
2017-05-24T04:17:00.305Z,2.96
2017-05-24T04:19:27.537Z,2.68
2017-05-24T04:21:54.828Z,2.56
2017-05-24T04:24:22.317Z,2.54
2017-05-24T04:26:49.620Z,2.50
2017-05-24T04:29:16.893Z,2.40
2017-05-24T04:31:44.200Z,2.14
2017-05-24T04:34:11.510Z,2.10
2017-05-24T04:36:38.772Z,1.76
2017-05-24T04:39:06.105Z,2.44
2017-05-24T04:41:33.359Z,2.08
2017-05-24T04:44:00.644Z,2.14
2017-05-24T04:46:27.946Z,2.46
2017-05-24T04:48:55.207Z,2.30
2017-05-24T04:51:22.649Z,2.34
2017-05-24T04:53:49.915Z,2.50
2017-05-24T04:56:17.400Z,2.46
2017-05-24T04:58:44.689Z,2.42
2017-05-24T05:01:11.957Z,1.62
2017-05-24T05:03:39.261Z,2.28
2017-05-24T05:06:06.509Z,2.24
2017-05-24T05:08:33.891Z,2.42
2017-05-24T05:11:01.164Z,2.10
2017-05-24T05:13:28.437Z,2.22
2017-05-24T05:15:55.676Z,2.24
2017-05-24T05:18:23.006Z,1.90
2017-05-24T05:20:50.247Z,2.26
2017-05-24T05:23:17.509Z,2.50
2017-05-24T05:25:44.811Z,1.90
2017-05-24T05:28:12.063Z,2.12
2017-05-24T05:30:39.347Z,2.56
2017-05-24T05:33:06.677Z,2.22
2017-05-24T05:35:33.936Z,2.40
2017-05-24T05:38:01.235Z,2.02
2017-05-24T05:40:28.526Z,2.12
2017-05-24T05:42:55.807Z,2.14
2017-05-24T05:45:23.109Z,2.30
2017-05-24T05:47:50.373Z,2.62
2017-05-24T05:50:17.667Z,2.48
2017-05-24T05:52:44.924Z,2.38
2017-05-24T05:55:12.176Z,2.46
2017-05-24T05:57:39.570Z,1.94
2017-05-24T06:00:06.819Z,2.60
2017-05-24T06:02:34.092Z,2.58
2017-05-24T06:05:01.480Z,2.32
2017-05-24T06:07:28.943Z,3.10
2017-05-24T06:09:56.236Z,2.20
2017-05-24T06:12:23.552Z,2.38
2017-05-24T06:14:51.017Z,2.20
2017-05-24T06:17:18.351Z,2.16
2017-05-24T06:19:45.768Z,2.30
2017-05-24T06:22:13.068Z,2.08
2017-05-24T06:24:40.348Z,2.06
2017-05-24T06:27:07.594Z,2.08
2017-05-24T06:29:34.863Z,2.10
2017-05-24T06:32:02.136Z,2.52
2017-05-24T06:34:29.479Z,2.14
2017-05-24T06:36:56.764Z,2.04
2017-05-24T06:39:24.016Z,1.82
2017-05-24T06:41:51.323Z,2.00
2017-05-24T06:44:18.609Z,1.84
2017-05-24T06:46:45.908Z,1.60
2017-05-24T06:49:13.168Z,1.56
2017-05-24T06:51:40.483Z,1.76
2017-05-24T06:54:07.760Z,1.76
2017-05-24T06:56:35.231Z,1.96
2017-05-24T06:59:02.492Z,1.94
2017-05-24T07:01:29.755Z,1.50
2017-05-24T07:03:57.224Z,1.36
2017-05-24T07:06:24.499Z,0.92
2017-05-24T07:08:51.795Z,1.34
2017-05-24T07:11:19.491Z,1.24
2017-05-24T07:13:47.516Z,1.40
2017-05-24T07:16:14.771Z,1.18
2017-05-24T07:18:42.015Z,1.42
2017-05-24T07:21:09.448Z,1.36
2017-05-24T07:23:36.684Z,1.80
2017-05-24T07:26:03.951Z,1.42
2017-05-24T07:28:31.338Z,1.40
2017-05-24T07:30:58.647Z,1.50
2017-05-24T07:33:25.908Z,1.36
2017-05-24T07:35:53.191Z,1.42
2017-05-24T07:38:20.480Z,1.42
2017-05-24T07:40:47.803Z,1.32
2017-05-24T07:43:15.085Z,1.30
2017-05-24T07:45:42.382Z,1.66
2017-05-24T07:48:09.660Z,1.52
2017-05-24T07:50:36.959Z,1.26
2017-05-24T07:53:04.252Z,1.34
2017-05-24T07:55:31.518Z,1.40
2017-05-24T07:57:58.748Z,1.54
2017-05-24T08:00:26.086Z,1.18
2017-05-24T08:02:53.411Z,1.36
2017-05-24T08:05:20.738Z,1.48
2017-05-24T08:07:48.015Z,1.34
2017-05-24T08:10:15.405Z,1.28
2017-05-24T08:12:42.760Z,1.66
2017-05-24T08:15:10.029Z,1.60
2017-05-24T08:17:37.345Z,1.92
2017-05-24T08:20:04.671Z,2.02
2017-05-24T08:22:32.208Z,1.84
2017-05-24T08:24:59.596Z,1.52
2017-05-24T08:27:26.944Z,1.48
2017-05-24T08:29:54.217Z,1.50
2017-05-24T08:32:21.452Z,1.64
2017-05-24T08:34:48.760Z,1.70
2017-05-24T08:37:16.115Z,1.54
2017-05-24T08:39:43.405Z,1.50
2017-05-24T08:42:10.735Z,1.40
2017-05-24T08:44:38.015Z,1.64
2017-05-24T08:47:05.397Z,1.94
2017-05-24T08:49:32.899Z,1.64
2017-05-24T08:52:00.139Z,1.76
2017-05-24T08:54:27.522Z,1.50
2017-05-24T08:56:54.803Z,1.88
2017-05-24T08:59:22.039Z,2.10
2017-05-24T09:01:49.326Z,1.60
2017-05-24T09:04:16.608Z,1.34
2017-05-24T09:06:43.951Z,1.80
2017-05-24T09:09:11.462Z,1.50
2017-05-24T09:11:38.748Z,2.00
2017-05-24T09:14:06.710Z,1.48
2017-05-24T09:16:33.983Z,1.84
2017-05-24T09:19:01.225Z,1.72
2017-05-24T09:21:28.545Z,1.94
2017-05-24T09:23:56.035Z,2.20
2017-05-24T09:26:23.329Z,2.02
2017-05-24T09:28:50.620Z,1.70
2017-05-24T09:31:18.025Z,1.82
2017-05-24T09:33:45.296Z,1.92
2017-05-24T09:36:12.733Z,1.68
2017-05-24T09:38:40.008Z,2.12
2017-05-24T09:41:07.356Z,1.74
2017-05-24T09:43:34.688Z,1.56
2017-05-24T09:46:02.016Z,1.80
2017-05-24T09:48:29.361Z,1.74
2017-05-24T09:50:56.633Z,1.74
2017-05-24T09:53:23.863Z,1.90
2017-05-24T09:55:51.154Z,1.70
2017-05-24T09:58:18.468Z,2.16
2017-05-24T10:00:45.778Z,1.68
2017-05-24T10:03:13.053Z,1.96
2017-05-24T10:05:40.355Z,2.10
2017-05-24T10:08:07.766Z,1.54
2017-05-24T10:10:35.033Z,1.98
2017-05-24T10:13:02.372Z,1.60
2017-05-24T10:15:29.715Z,2.08
2017-05-24T10:17:57.000Z,1.60
2017-05-24T10:20:24.305Z,1.58
2017-05-24T10:22:51.626Z,1.78
2017-05-24T10:25:18.925Z,1.98
2017-05-24T10:27:46.173Z,2.42
2017-05-24T10:30:13.440Z,1.64
2017-05-24T10:32:40.884Z,1.50
2017-05-24T10:35:08.193Z,1.86
2017-05-24T10:37:36.042Z,1.50
2017-05-24T10:40:18.215Z,1.36
2017-05-24T10:42:45.516Z,1.52
2017-05-24T10:45:12.818Z,2.20
2017-05-24T10:47:40.150Z,2.04
2017-05-24T10:50:07.540Z,1.88
2017-05-24T10:52:34.835Z,1.78
2017-05-24T10:55:02.122Z,1.74
2017-05-24T10:57:29.373Z,2.22
2017-05-24T10:59:56.688Z,1.70
2017-05-24T11:02:24.008Z,1.34
2017-05-24T11:04:51.255Z,1.90
2017-05-24T11:07:18.516Z,1.64
2017-05-24T11:09:45.815Z,1.40
2017-05-24T11:12:13.119Z,1.64
2017-05-24T11:14:40.393Z,1.90
2017-05-24T11:17:07.760Z,1.60
2017-05-24T11:19:35.077Z,1.66
2017-05-24T11:22:02.376Z,8.94
2017-05-24T11:24:29.770Z,1.74
2017-05-24T11:26:57.130Z,1.90
2017-05-24T11:29:24.578Z,1.66
2017-05-24T11:31:51.893Z,1.56
2017-05-24T11:34:19.211Z,1.70
2017-05-24T11:36:47.308Z,1.70
2017-05-24T11:39:14.625Z,2.46
2017-05-24T11:41:41.938Z,2.14
2017-05-24T11:44:09.441Z,1.90
2017-05-24T11:46:36.820Z,2.00
2017-05-24T11:49:04.400Z,1.50
2017-05-24T11:51:31.789Z,1.80
2017-05-24T11:53:59.232Z,2.18
2017-05-24T11:56:26.652Z,1.90
2017-05-24T11:58:54.076Z,2.20
2017-05-24T12:01:21.431Z,1.80
2017-05-24T12:03:48.772Z,1.90
2017-05-24T12:06:16.387Z,2.04
2017-05-24T12:08:43.684Z,1.80
2017-05-24T12:11:11.069Z,1.88
2017-05-24T12:13:38.384Z,2.06
2017-05-24T12:16:05.765Z,2.36
2017-05-24T12:18:33.560Z,1.46
2017-05-24T12:21:00.906Z,1.84
2017-05-24T12:23:28.296Z,2.00
2017-05-24T12:25:55.601Z,2.18
2017-05-24T12:28:23.142Z,2.04
2017-05-24T12:30:50.820Z,2.02
2017-05-24T12:33:18.171Z,2.08
2017-05-24T12:35:45.608Z,2.50
2017-05-24T12:38:13.036Z,2.26
2017-05-24T12:40:40.324Z,2.00
2017-05-24T12:43:07.643Z,2.50
2017-05-24T12:45:35.144Z,2.56
2017-05-24T12:48:02.636Z,2.88
2017-05-24T12:50:30.043Z,2.56
2017-05-24T12:52:57.325Z,2.52
2017-05-24T12:55:24.669Z,3.52
2017-05-24T12:57:52.071Z,3.52
2017-05-24T13:00:19.478Z,2.90
2017-05-24T13:02:46.828Z,3.10
2017-05-24T13:05:14.160Z,2.90
2017-05-24T13:07:41.555Z,3.66
2017-05-24T13:10:09.037Z,3.00
2017-05-24T13:12:36.359Z,3.30
2017-05-24T13:15:03.751Z,3.10
2017-05-24T13:20:23.509Z,3.16
2017-05-24T13:22:50.886Z,3.02
2017-05-24T13:25:18.458Z,4.02
2017-05-24T13:27:45.060Z,3.60
2017-05-24T13:30:11.682Z,3.12
2017-05-24T13:32:38.972Z,3.42
2017-05-24T13:35:12.107Z,3.74
2017-05-24T13:37:39.555Z,4.14
2017-05-24T13:40:06.309Z,3.90
2017-05-24T13:42:33.585Z,4.70
2017-05-24T13:45:01.093Z,5.30
2017-05-24T13:47:28.507Z,6.02
2017-05-24T13:49:55.097Z,4.34
2017-05-24T13:52:22.490Z,5.96
2017-05-24T13:54:49.823Z,5.00
2017-05-24T13:57:17.235Z,4.38
2017-05-24T13:59:44.595Z,4.42
2017-05-24T14:02:11.204Z,4.68
2017-05-24T14:04:38.728Z,4.16
2017-05-24T14:07:06.035Z,4.22
2017-05-24T14:09:33.405Z,4.60
2017-05-24T14:11:59.933Z,4.60
2017-05-24T14:14:27.256Z,4.70
2017-05-24T14:16:54.684Z,4.46
2017-05-24T14:19:21.323Z,4.56
2017-05-24T14:21:48.712Z,4.36
2017-05-24T14:24:15.296Z,4.22
2017-05-24T14:26:42.564Z,5.74
2017-05-24T14:29:09.195Z,4.60
2017-05-24T14:31:36.520Z,4.54
2017-05-24T14:34:03.165Z,5.28
2017-05-24T14:36:29.832Z,6.00
2017-05-24T14:38:57.198Z,6.02
2017-05-24T14:41:24.519Z,4.96
2017-05-24T14:43:51.929Z,5.06
2017-05-24T14:46:19.314Z,4.70
2017-05-24T14:48:46.749Z,4.10
2017-05-24T14:51:14.049Z,4.62
2017-05-24T14:53:40.674Z,5.12
2017-05-24T14:56:08.024Z,5.28
2017-05-24T14:58:35.348Z,5.88
2017-05-24T15:01:02.664Z,6.66
2017-05-24T15:03:29.950Z,4.22
2017-05-24T15:05:57.231Z,4.80
2017-05-24T15:08:24.534Z,5.00
2017-05-24T15:10:51.833Z,6.68
2017-05-24T15:13:19.205Z,6.02
2017-05-24T15:15:46.552Z,5.98
2017-05-24T15:18:13.177Z,6.60
2017-05-24T15:20:40.545Z,6.50
2017-05-24T15:23:07.866Z,7.00
2017-05-24T15:25:34.411Z,7.10
2017-05-24T15:28:01.742Z,8.36
2017-05-24T15:30:29.020Z,8.10
2017-05-24T15:32:56.731Z,8.54
2017-05-24T15:35:24.144Z,8.50
2017-05-24T15:37:50.737Z,9.64
2017-05-24T15:40:18.011Z,8.70
2017-05-24T15:42:45.379Z,10.26
2017-05-24T15:45:12.817Z,9.02
2017-05-24T15:47:40.200Z,6.52
2017-05-24T15:50:07.596Z,6.54
2017-05-24T15:52:35.013Z,6.20
2017-05-24T15:55:02.375Z,5.10
2017-05-24T15:57:29.029Z,6.90
2017-05-24T15:59:55.725Z,8.20
2017-05-24T16:02:23.180Z,9.78
2017-05-24T16:04:50.544Z,8.96
2017-05-24T16:07:17.267Z,6.96
2017-05-24T16:09:43.858Z,10.16
2017-05-24T16:12:11.451Z,5.98
2017-05-24T16:14:38.743Z,10.54
2017-05-24T16:17:06.121Z,6.58
2017-05-24T16:19:33.421Z,6.80
2017-05-24T16:22:00.792Z,6.52
2017-05-24T16:24:28.087Z,6.40
2017-05-24T16:26:55.484Z,6.24
2017-05-24T16:29:22.807Z,5.68
2017-05-24T16:31:50.127Z,6.88
2017-05-24T16:34:17.456Z,6.68
2017-05-24T16:36:44.775Z,7.36
2017-05-24T16:39:12.119Z,6.76
2017-05-24T16:41:39.420Z,7.08
2017-05-24T16:44:06.712Z,6.78
2017-05-24T16:46:34.018Z,6.42
2017-05-24T16:49:01.389Z,7.04
2017-05-24T16:51:28.802Z,7.06
2017-05-24T16:53:56.185Z,8.10
2017-05-24T16:56:23.502Z,8.62
2017-05-24T16:58:50.844Z,9.94
2017-05-24T17:01:18.227Z,7.44
2017-05-24T17:03:45.691Z,11.60
2017-05-24T17:06:13.163Z,7.08
2017-05-24T17:08:40.609Z,7.58
2017-05-24T17:11:07.972Z,6.78
2017-05-24T17:13:35.299Z,6.96
2017-05-24T17:16:02.809Z,8.24
2017-05-24T17:18:30.088Z,7.90
2017-05-24T17:20:57.658Z,7.20
2017-05-24T17:23:24.933Z,6.84
2017-05-24T17:25:52.264Z,7.88
2017-05-24T17:28:19.551Z,7.50
2017-05-24T17:30:46.824Z,6.62
2017-05-24T17:33:14.076Z,7.02
2017-05-24T17:35:41.384Z,6.30
2017-05-24T17:38:09.028Z,6.90
2017-05-24T17:40:36.329Z,7.14
2017-05-24T17:43:03.637Z,7.88
2017-05-24T17:45:30.973Z,8.28
2017-05-24T17:47:58.336Z,8.34
2017-05-24T17:50:24.897Z,7.98
2017-05-24T17:52:52.190Z,8.40
2017-05-24T17:55:19.668Z,10.22
2017-05-24T17:57:46.971Z,8.68
2017-05-24T18:00:14.353Z,8.64
2017-05-24T18:02:41.690Z,8.00
2017-05-24T18:05:09.221Z,9.02
2017-05-24T18:07:36.493Z,10.14
2017-05-24T18:10:03.877Z,10.10
2017-05-24T18:12:31.433Z,10.36
2017-05-24T18:14:58.705Z,11.70
2017-05-24T18:17:26.025Z,12.20
2017-05-24T18:19:53.430Z,12.68
2017-05-24T18:22:20.680Z,11.96
2017-05-24T18:24:47.964Z,12.62
2017-05-24T18:27:15.266Z,12.08
2017-05-24T18:29:42.575Z,13.56
2017-05-24T18:32:09.897Z,12.60
2017-05-24T18:34:37.332Z,12.62
2017-05-24T18:37:04.579Z,14.64
2017-05-24T18:39:31.973Z,16.34
2017-05-24T18:41:59.319Z,15.48
2017-05-24T18:44:26.686Z,15.08
2017-05-24T18:46:53.953Z,15.52
2017-05-24T18:49:21.280Z,16.82
2017-05-24T18:51:48.589Z,17.02
2017-05-24T18:54:15.917Z,15.98
2017-05-24T18:56:43.346Z,17.70
2017-05-24T18:59:10.672Z,17.04
2017-05-24T19:01:38.008Z,15.62
2017-05-24T19:04:04.659Z,16.68
2017-05-24T19:06:32.019Z,17.28
2017-05-24T19:08:59.336Z,18.20
2017-05-24T19:11:26.644Z,17.68
2017-05-24T19:13:54.057Z,17.46
2017-05-24T19:16:21.395Z,18.28
2017-05-24T19:18:49.273Z,17.18
2017-05-24T19:21:16.688Z,17.58
2017-05-24T19:23:43.955Z,16.86
2017-05-24T19:26:11.372Z,17.08
2017-05-24T19:28:38.669Z,19.12
2017-05-24T19:31:07.024Z,20.32
2017-05-24T19:33:34.376Z,20.48
2017-05-24T19:36:01.709Z,20.24
2017-05-24T19:38:29.043Z,19.60
2017-05-24T19:40:56.345Z,20.26
2017-05-24T19:43:23.752Z,20.70
2017-05-24T19:45:51.275Z,19.70
2017-05-24T19:48:18.658Z,21.76
2017-05-24T19:50:45.996Z,20.48
2017-05-24T19:53:13.301Z,19.54
2017-05-24T19:55:40.865Z,21.12
2017-05-24T19:58:08.171Z,19.90
2017-05-24T20:00:35.492Z,21.30
2017-05-24T20:03:02.894Z,19.88
2017-05-24T20:05:30.341Z,21.02
2017-05-24T20:07:57.705Z,19.10
2017-05-24T20:10:25.012Z,19.82
2017-05-24T20:12:52.307Z,19.42
2017-05-24T20:15:19.753Z,19.76
2017-05-24T20:17:47.148Z,19.36
2017-05-24T20:20:14.492Z,19.94
2017-05-24T20:22:41.883Z,18.28
2017-05-24T20:25:10.266Z,17.98
2017-05-24T20:27:37.738Z,18.42
2017-05-24T20:30:05.131Z,19.16
2017-05-24T20:32:32.557Z,18.58
2017-05-24T20:35:00.106Z,18.68
2017-05-24T20:37:27.458Z,19.90
2017-05-24T20:39:54.803Z,20.92
2017-05-24T20:42:22.191Z,21.78
2017-05-24T20:44:49.547Z,20.64
2017-05-24T20:47:16.881Z,20.38
2017-05-24T20:49:44.323Z,20.68
2017-05-24T20:52:11.645Z,21.38
2017-05-24T20:54:39.009Z,20.60
2017-05-24T20:57:06.413Z,19.30
2017-05-24T20:59:33.742Z,20.22
2017-05-24T21:02:01.076Z,22.12
2017-05-24T21:04:28.536Z,21.50
2017-05-24T21:06:55.944Z,19.92
2017-05-24T21:09:23.244Z,20.90
2017-05-24T21:11:50.624Z,20.26
2017-05-24T21:14:18.004Z,23.12
2017-05-24T21:16:45.476Z,23.30
2017-05-24T21:19:13.591Z,23.94
2017-05-24T21:21:40.900Z,23.52
2017-05-24T21:24:08.294Z,25.00
2017-05-24T21:26:35.715Z,22.48
2017-05-24T21:29:03.025Z,23.50
2017-05-24T21:31:30.423Z,24.72
2017-05-24T21:33:57.731Z,22.46
2017-05-24T21:36:25.140Z,23.04
2017-05-24T21:38:52.506Z,22.98
2017-05-24T21:41:19.843Z,21.22
2017-05-24T21:43:47.138Z,20.82
2017-05-24T21:46:14.457Z,21.00
2017-05-24T21:48:41.941Z,23.44
2017-05-24T21:51:09.281Z,22.22
2017-05-24T21:53:36.561Z,24.74
2017-05-24T21:56:03.932Z,22.78
2017-05-24T21:58:31.249Z,20.16
2017-05-24T22:00:58.594Z,20.48
2017-05-24T22:03:25.933Z,20.88
2017-05-24T22:05:53.267Z,23.86
2017-05-24T22:08:20.552Z,23.92
2017-05-24T22:10:47.890Z,21.94
2017-05-24T22:13:15.227Z,22.74
2017-05-24T22:15:42.505Z,24.38
2017-05-24T22:18:09.848Z,22.40
2017-05-24T22:20:37.209Z,22.68
2017-05-24T22:23:04.628Z,21.92
2017-05-24T22:25:32.011Z,23.70
2017-05-24T22:27:59.372Z,21.98
2017-05-24T22:30:26.717Z,22.26
2017-05-24T22:32:54.080Z,23.50
2017-05-24T22:35:21.463Z,23.32
2017-05-24T22:37:48.755Z,22.48
2017-05-24T22:40:16.084Z,24.22
2017-05-24T22:42:43.460Z,22.12
2017-05-24T22:45:10.781Z,23.14
2017-05-24T22:47:38.117Z,23.18
2017-05-24T22:50:05.589Z,21.82
2017-05-24T22:52:32.903Z,26.06
2017-05-24T22:55:00.314Z,26.10
2017-05-24T22:57:27.625Z,25.00
2017-05-24T22:59:55.099Z,25.04
2017-05-24T23:02:22.493Z,27.28
2017-05-24T23:04:49.835Z,30.20
2017-05-24T23:07:17.203Z,28.88
2017-05-24T23:09:44.499Z,26.86
2017-05-24T23:12:11.907Z,23.68
2017-05-24T23:14:39.208Z,21.98
2017-05-24T23:17:06.599Z,21.62
2017-05-24T23:19:33.938Z,23.30
2017-05-24T23:22:01.255Z,23.22
2017-05-24T23:24:28.621Z,23.46
2017-05-24T23:26:55.965Z,22.86
2017-05-24T23:29:23.320Z,22.32
2017-05-24T23:31:50.737Z,23.70
2017-05-24T23:34:18.085Z,23.88
2017-05-24T23:36:45.436Z,23.18
2017-05-24T23:39:12.805Z,24.28
2017-05-24T23:41:40.160Z,23.80
2017-05-24T23:44:07.506Z,23.02
2017-05-24T23:46:34.811Z,24.68
2017-05-24T23:49:02.146Z,24.04
2017-05-24T23:51:29.461Z,23.36
2017-05-24T23:59:45.277Z,23.16
